SBPK/PET METAR and TAF weather

Enter ICAO airport designator
Station Type Date Time Source
SBPK METAR 2021/09/25 12:15 UTC NOAA

SBPK 251215Z 22010KT 9999 BKN012 BKN025 18/16 Q1020


Station Type Date Time Source
SBPK Decoded METAR 2021/09/25 12:15 UTC NOAA

Pelotas, Brazil (SBPK) 31-52S 052-21W 13M
Sep 25, 2021 - 08:15 AM EDT / 2021.09.25 1215 UTC
Wind: from the SW (220 degrees) at 12 MPH (10 KT):0
Visibility: greater than 7 mile(s):0
Sky conditions: mostly cloudy
Temperature: 64 F (18 C)
Dew Point: 60 F (16 C)
Relative Humidity: 88%
Pressure (altimeter): 30.12 in. Hg (1020 hPa)
ob: SBPK 251215Z 22010KT 9999 BKN012 BKN025 18/16 Q1020
cycle: 12

Station Type Date Time Source
SBPK TAF 2021/09/25 12:03 UTC NOAA

TAF SBPK 250900Z 2512/2612 20009KT 9999 SCT026 TX20/2518Z TN13/2608Z
TEMPO 2512/2516 19008KT 4000 BR BKN013
BECMG 2522/2524 03005KT 5000 BR BKN013
BECMG 2606/2608 27009KT
BECMG 2610/2612 09008KT
RMK PDP

Example: see airport list